To NAV CANADA Home Page Login to a new session Search on AWWS site Disclaimer Vers la page française équivalente Tips FAQ What's new on the site To the Forecasts and Observations / NOTAM section To "File a Flight Plan" website Publications and other links Update of the User's profile FIC Telephone Numbers My Weather Data Folder Route Weather Data Regional Weather Data Local Weather Data To the Forecasts and Observations / NOTAM section
Request Generated 04/24/2019 at 16:01:10 UTC . Weather information available at that time is displayed.

METAR/TAF

PICKLE LAKE/ON    

METAR CYPL 241500Z 16010G17KT 15SM FEW015 SCT060 SCT220 06/02 A2960 RMK CU1SC2CI1 SLP039=
METAR CYPL 241400Z 16012G19KT 15SM FEW012 BKN050 BKN210 04/02 A2962 RMK SF1SC4CI1 CU ASOCTD SLP048=
SPECI CYPL 241310Z 16011G19KT 12SM BKN050 OVC210 03/02 A2964 RMK SC7CI1 BR SLP053=
METAR CYPL 241300Z 16011KT 12SM -SHRA BKN050 OVC210 03/02 A2964 RMK SC7CI1 BR CVCTV CLD EMBD SLP053=

TAF CYPL 241240Z 2413/2501 14012KT P6SM OVC060
FM241600 19012KT P6SM SCT060
FM242000 22006KT P6SM -SHRA BKN060 PROB40 2420/2422 2SM TSRA BR
SCT006 OVC015CB
FM250000 21005KT P6SM -SHRA BKN015 BKN060
RMK NXT FCST BY 242000Z=
Your time UTC time
Weather data provided by Environment Canada and NAV CANADA